Rhapsody Of The Seas — C6UA2 — position and weather

sailwx.info

Track history (hours):
 
Tides and Currents Weather Stations Pressure Air Temp Water Temp Dewpoint Dewpoint Depression Visibility Wind Speed Wind Dir Waves Ship Positions

Rhapsody Of The Seas

Last reported at 2020-Sep-18 04:47 UTC. Time now 2020-Sep-18 06:29 UTC.
Position N 18°01' W 063°03'.

Type: Passenger vessel. MMSI: 311805000.

Date/timePositionNaut miles runAvg speedWind from/ knotsBaromVisibWave heightAir tempDewpointWater temp
2020-Sep-18 04:47N 18°01' W 063°03'0 0.0
2020-Sep-18 02:44N 18°01' W 063°03'0 0.0
2020-Sep-17 19:08N 18°01' W 063°03'0 0.0
2020-Sep-17 16:44N 18°01' W 063°03'0 0.0
2020-Sep-17 15:17N 18°01' W 063°03'0 0.0
2020-Sep-17 14:17N 18°01' W 063°03'0 0.0
2020-Sep-17 11:35N 18°01' W 063°03'0 0.0
2020-Sep-17 07:38N 18°01' W 063°03'0 0.0
2020-Sep-17 06:38N 18°01' W 063°03'0 0.0
2020-Sep-17 06:26N 18°01' W 063°03'0 0.0
2020-Sep-17 02:44N 18°01' W 063°03'0 0.0
2020-Sep-16 17:38N 18°01' W 063°03'0 0.0
2020-Sep-16 16:38N 18°01' W 063°03'0 0.0
2020-Sep-16 16:08N 18°01' W 063°03'0 0.0
2020-Sep-16 06:32N 18°01' W 063°03'0 0.0
2020-Sep-16 04:23N 18°01' W 063°03'0 0.0
2020-Sep-16 03:51N 18°01' W 063°03'0 0.0
2020-Sep-16 02:53N 18°01' W 063°03'0 0.0
2020-Sep-15 23:59N 18°01' W 063°03'0 0.0
2020-Sep-15 23:29N 18°01' W 063°03'0 0.0
2020-Sep-15 22:27N 18°01' W 063°03'0 0.0
2020-Sep-15 20:20N 18°01' W 063°03'0 0.0
2020-Sep-15 11:44N 18°01' W 063°03'0 0.0
2020-Sep-15 07:05N 18°01' W 063°03'0 0.0
2020-Sep-15 02:53N 18°01' W 063°03'0 0.0
2020-Sep-15 01:53N 18°01' W 063°03'0 0.0
2020-Sep-14 19:56N 18°01' W 063°03'0 0.0
2020-Sep-14 12:23N 18°01' W 063°03'3 0.6
2020-Sep-14 08:00N 18°00' W 063°00'3 1.6 070 / 91014.0 27.0 30.0
2020-Sep-14 06:14N 18°01' W 063°03'0 0.0
2020-Sep-13 21:20N 18°01' W 063°03'4 0.8
2020-Sep-13 15:59N 18°01' W 063°07'1 1.5
2020-Sep-13 15:29N 18°01' W 063°08'5 4.6
2020-Sep-13 14:23N 18°01' W 063°13'5 5.2
2020-Sep-13 13:29N 18°02' W 063°18'7 1.7
2020-Sep-13 09:00N 18°04' W 063°26'0 0.6
2020-Sep-13 08:26N 18°04' W 063°25'10 0.8
2020-Sep-12 21:00N 18°01' W 063°16'510.4
2020-Sep-12 20:28N 18°01' W 063°10'3 2.8
2020-Sep-12 19:29N 18°01' W 063°07'0 0.0
2020-Sep-12 17:29N 18°01' W 063°07'0 0.0
2020-Sep-12 15:41N 18°01' W 063°07'0 0.0
2020-Sep-12 15:00N 18°01' W 063°07'0 0.0
2020-Sep-12 14:05N 18°01' W 063°07'0 0.0
2020-Sep-12 09:35N 18°01' W 063°07'0 0.0
2020-Sep-12 08:11N 18°01' W 063°07'1 1.1
2020-Sep-12 07:00N 18°00' W 063°06'1 2.2 050 / 91008.7 26.5 30.0
2020-Sep-12 06:23N 18°01' W 063°07'0 0.0
2020-Sep-12 04:59N 18°01' W 063°07'0 0.0
2020-Sep-12 01:29N 18°01' W 063°07'0 0.0
2020-Sep-11 23:41N 18°01' W 063°07'0 0.0
2020-Sep-11 22:29N 18°01' W 063°07'0 0.0
2020-Sep-11 18:53N 18°01' W 063°07'0 0.0
2020-Sep-11 10:59N 18°01' W 063°07'0 0.0
2020-Sep-11 08:59N 18°01' W 063°07'0 0.0
2020-Sep-11 08:23N 18°01' W 063°07'0 0.0
2020-Sep-11 07:59N 18°01' W 063°07'0 0.0
2020-Sep-11 06:23N 18°01' W 063°07'0 0.0
2020-Sep-11 05:35N 18°01' W 063°07'0 0.0
2020-Sep-11 03:41N 18°01' W 063°07'0 0.0
2020-Sep-11 03:11N 18°01' W 063°07'0 0.0
2020-Sep-10 23:05N 18°01' W 063°07'0 0.0
2020-Sep-10 21:11N 18°01' W 063°07'0 0.0
2020-Sep-10 19:29N 18°01' W 063°07'0 0.0
2020-Sep-10 14:29N 18°01' W 063°07'0 0.0
2020-Sep-10 11:17N 18°01' W 063°07'0 0.1
2020-Sep-10 10:59N 18°01' W 063°07'0 0.0
2020-Sep-10 09:11N 18°01' W 063°07'1 1.1
2020-Sep-10 08:00N 18°00' W 063°06'1 0.4 050 / 81013.2 26.9
2020-Sep-10 04:53N 18°01' W 063°07'0 0.0
2020-Sep-10 03:29N 18°01' W 063°07'0 0.0
2020-Sep-10 01:23N 18°01' W 063°07'0 0.0
2020-Sep-09 22:59N 18°01' W 063°07'0 0.0
2020-Sep-09 19:05N 18°01' W 063°07'0 0.0
2020-Sep-09 17:59N 18°01' W 063°07'0 0.1
2020-Sep-09 17:23N 18°01' W 063°07'0 0.0
2020-Sep-09 15:41N 18°01' W 063°07'0 0.0
2020-Sep-09 12:53N 18°01' W 063°07'0 0.0
2020-Sep-09 10:53N 18°01' W 063°07'0 0.0
2020-Sep-09 09:29N 18°01' W 063°07'0 0.0
2020-Sep-09 08:59N 18°01' W 063°07'0 0.0
2020-Sep-09 07:35N 18°01' W 063°07'1 2.3
2020-Sep-09 07:00N 18°00' W 063°06'112.8 090 / 151011.3 27.6
2020-Sep-09 06:53N 18°01' W 063°07'0 0.0
2020-Sep-09 05:59N 18°01' W 063°07'0 0.0
2020-Sep-09 02:59N 18°01' W 063°07'0 0.0
2020-Sep-09 01:59N 18°01' W 063°07'0 0.0
2020-Sep-09 00:59N 18°01' W 063°07'0 0.0
2020-Sep-09 00:23N 18°01' W 063°07'0 0.0
2020-Sep-08 23:23N 18°01' W 063°07'0 0.0
2020-Sep-08 18:59N 18°01' W 063°07'1 0.7
2020-Sep-08 17:00N 18°00' W 063°06'1 2.7 120 / 151012.5 28.1 29.9
2020-Sep-08 16:29N 18°01' W 063°07'0 0.0
2020-Sep-08 15:17N 18°01' W 063°07'0 0.0
2020-Sep-08 13:29N 18°01' W 063°07'0 0.1
2020-Sep-08 12:41N 18°01' W 063°07'0 0.0
2020-Sep-08 08:59N 18°01' W 063°07'0 0.0
2020-Sep-08 07:47N 18°01' W 063°07'1 1.8
2020-Sep-08 07:00N 18°00' W 063°06'1 0.8 080 / 161009.5 27.4 29.9
2020-Sep-08 05:24N 18°01' W 063°07'  
Track history (hours):
 
Tides and Currents Weather Stations Pressure Air Temp Water Temp Dewpoint Dewpoint Depression Visibility Wind Speed Wind Dir Waves Ship Positions

Rhapsody Of The Seas

Last reported at 2020-Sep-18 04:47 UTC. Time now 2020-Sep-18 06:29 UTC.
Position N 18°01' W 063°03'.

Type: Passenger vessel. MMSI: 311805000.

Date/timePositionNaut miles runAvg speedWind from/ knotsBaromVisibWave heightAir tempDewpointWater temp
2020-Sep-18 04:47N 18°01' W 063°03'0 0.0
2020-Sep-18 02:44N 18°01' W 063°03'0 0.0
2020-Sep-17 19:08N 18°01' W 063°03'0 0.0
2020-Sep-17 16:44N 18°01' W 063°03'0 0.0
2020-Sep-17 15:17N 18°01' W 063°03'0 0.0
2020-Sep-17 14:17N 18°01' W 063°03'0 0.0
2020-Sep-17 11:35N 18°01' W 063°03'0 0.0
2020-Sep-17 07:38N 18°01' W 063°03'0 0.0
2020-Sep-17 06:38N 18°01' W 063°03'0 0.0
2020-Sep-17 06:26N 18°01' W 063°03'0 0.0
2020-Sep-17 02:44N 18°01' W 063°03'0 0.0
2020-Sep-16 17:38N 18°01' W 063°03'0 0.0
2020-Sep-16 16:38N 18°01' W 063°03'0 0.0
2020-Sep-16 16:08N 18°01' W 063°03'0 0.0
2020-Sep-16 06:32N 18°01' W 063°03'0 0.0
2020-Sep-16 04:23N 18°01' W 063°03'0 0.0
2020-Sep-16 03:51N 18°01' W 063°03'0 0.0
2020-Sep-16 02:53N 18°01' W 063°03'0 0.0
2020-Sep-15 23:59N 18°01' W 063°03'0 0.0
2020-Sep-15 23:29N 18°01' W 063°03'0 0.0
2020-Sep-15 22:27N 18°01' W 063°03'0 0.0
2020-Sep-15 20:20N 18°01' W 063°03'0 0.0
2020-Sep-15 11:44N 18°01' W 063°03'0 0.0
2020-Sep-15 07:05N 18°01' W 063°03'0 0.0
2020-Sep-15 02:53N 18°01' W 063°03'0 0.0
2020-Sep-15 01:53N 18°01' W 063°03'0 0.0
2020-Sep-14 19:56N 18°01' W 063°03'0 0.0
2020-Sep-14 12:23N 18°01' W 063°03'3 0.6
2020-Sep-14 08:00N 18°00' W 063°00'3 1.6 070 / 91014.0 27.0 30.0
2020-Sep-14 06:14N 18°01' W 063°03'0 0.0
2020-Sep-13 21:20N 18°01' W 063°03'4 0.8
2020-Sep-13 15:59N 18°01' W 063°07'1 1.5
2020-Sep-13 15:29N 18°01' W 063°08'5 4.6
2020-Sep-13 14:23N 18°01' W 063°13'5 5.2
2020-Sep-13 13:29N 18°02' W 063°18'7 1.7
2020-Sep-13 09:00N 18°04' W 063°26'0 0.6
2020-Sep-13 08:26N 18°04' W 063°25'10 0.8
2020-Sep-12 21:00N 18°01' W 063°16'510.4
2020-Sep-12 20:28N 18°01' W 063°10'3 2.8
2020-Sep-12 19:29N 18°01' W 063°07'0 0.0
2020-Sep-12 17:29N 18°01' W 063°07'0 0.0
2020-Sep-12 15:41N 18°01' W 063°07'0 0.0
2020-Sep-12 15:00N 18°01' W 063°07'0 0.0
2020-Sep-12 14:05N 18°01' W 063°07'0 0.0
2020-Sep-12 09:35N 18°01' W 063°07'0 0.0
2020-Sep-12 08:11N 18°01' W 063°07'1 1.1
2020-Sep-12 07:00N 18°00' W 063°06'1 2.2 050 / 91008.7 26.5 30.0
2020-Sep-12 06:23N 18°01' W 063°07'0 0.0
2020-Sep-12 04:59N 18°01' W 063°07'0 0.0
2020-Sep-12 01:29N 18°01' W 063°07'0 0.0
2020-Sep-11 23:41N 18°01' W 063°07'0 0.0
2020-Sep-11 22:29N 18°01' W 063°07'0 0.0
2020-Sep-11 18:53N 18°01' W 063°07'0 0.0
2020-Sep-11 10:59N 18°01' W 063°07'0 0.0
2020-Sep-11 08:59N 18°01' W 063°07'0 0.0
2020-Sep-11 08:23N 18°01' W 063°07'0 0.0
2020-Sep-11 07:59N 18°01' W 063°07'0 0.0
2020-Sep-11 06:23N 18°01' W 063°07'0 0.0
2020-Sep-11 05:35N 18°01' W 063°07'0 0.0
2020-Sep-11 03:41N 18°01' W 063°07'0 0.0
2020-Sep-11 03:11N 18°01' W 063°07'0 0.0
2020-Sep-10 23:05N 18°01' W 063°07'0 0.0
2020-Sep-10 21:11N 18°01' W 063°07'0 0.0
2020-Sep-10 19:29N 18°01' W 063°07'0 0.0
2020-Sep-10 14:29N 18°01' W 063°07'0 0.0
2020-Sep-10 11:17N 18°01' W 063°07'0 0.1
2020-Sep-10 10:59N 18°01' W 063°07'0 0.0
2020-Sep-10 09:11N 18°01' W 063°07'1 1.1
2020-Sep-10 08:00N 18°00' W 063°06'1 0.4 050 / 81013.2 26.9
2020-Sep-10 04:53N 18°01' W 063°07'0 0.0
2020-Sep-10 03:29N 18°01' W 063°07'0 0.0
2020-Sep-10 01:23N 18°01' W 063°07'0 0.0
2020-Sep-09 22:59N 18°01' W 063°07'0 0.0
2020-Sep-09 19:05N 18°01' W 063°07'0 0.0
2020-Sep-09 17:59N 18°01' W 063°07'0 0.1
2020-Sep-09 17:23N 18°01' W 063°07'0 0.0
2020-Sep-09 15:41N 18°01' W 063°07'0 0.0
2020-Sep-09 12:53N 18°01' W 063°07'0 0.0
2020-Sep-09 10:53N 18°01' W 063°07'0 0.0
2020-Sep-09 09:29N 18°01' W 063°07'0 0.0
2020-Sep-09 08:59N 18°01' W 063°07'0 0.0
2020-Sep-09 07:35N 18°01' W 063°07'1 2.3
2020-Sep-09 07:00N 18°00' W 063°06'112.8 090 / 151011.3 27.6
2020-Sep-09 06:53N 18°01' W 063°07'0 0.0
2020-Sep-09 05:59N 18°01' W 063°07'0 0.0
2020-Sep-09 02:59N 18°01' W 063°07'0 0.0
2020-Sep-09 01:59N 18°01' W 063°07'0 0.0
2020-Sep-09 00:59N 18°01' W 063°07'0 0.0
2020-Sep-09 00:23N 18°01' W 063°07'0 0.0
2020-Sep-08 23:23N 18°01' W 063°07'0 0.0
2020-Sep-08 18:59N 18°01' W 063°07'1 0.7
2020-Sep-08 17:00N 18°00' W 063°06'1 2.7 120 / 151012.5 28.1 29.9
2020-Sep-08 16:29N 18°01' W 063°07'0 0.0
2020-Sep-08 15:17N 18°01' W 063°07'0 0.0
2020-Sep-08 13:29N 18°01' W 063°07'0 0.1
2020-Sep-08 12:41N 18°01' W 063°07'0 0.0
2020-Sep-08 08:59N 18°01' W 063°07'0 0.0
2020-Sep-08 07:47N 18°01' W 063°07'1 1.8
2020-Sep-08 07:00N 18°00' W 063°06'1 0.8 080 / 161009.5 27.4 29.9
2020-Sep-08 05:24N 18°01' W 063°07'  

Dump ship's entire track history